Time;durP1;ratioP1;P1;durP2;ratioP2;P2;SDS_P1;SDS_P2;PMS_P1;PMS_P2;Temp;Humidity;BMP_temperature;BMP_pressure;BME280_temperature;BME280_humidity;BME280_pressure;Samples;Min_cycle;Max_cycle;Signal;HPM_P1;HPM_P2
2024/03/31 00:00:13;;;;;;;27.10;6.90;;;;;;;13.51;76.13;97784.36;109479;1252;62884;-73
2024/03/31 00:02:59;;;;;;;26.00;6.60;;;;;;;13.46;76.24;97778.10;109490;1253;58989;-72
2024/03/31 00:05:26;;;;;;;35.20;7.00;;;;;;;13.45;76.44;97774.63;109520;1252;59019;-74
2024/03/31 00:07:52;;;;;;;21.60;6.80;;;;;;;13.44;76.48;97773.84;109483;1253;59007;-74
2024/03/31 00:10:19;;;;;;;20.00;6.30;;;;;;;13.41;76.55;97768.40;109511;1253;59280;-72
2024/03/31 00:12:45;;;;;;;21.30;6.20;;;;;;;13.41;76.72;97769.48;109514;1253;59026;-74
2024/03/31 00:15:12;;;;;;;25.90;6.00;;;;;;;13.41;76.73;97770.34;109495;1252;59000;-73
2024/03/31 00:17:39;;;;;;;23.70;7.60;;;;;;;13.46;76.56;97766.98;109486;1253;59228;-73
2024/03/31 00:20:05;;;;;;;22.30;6.50;;;;;;;13.52;76.45;97765.19;109505;1252;58946;-72
2024/03/31 00:22:32;;;;;;;18.30;5.50;;;;;;;13.56;76.33;97759.27;109527;1253;59886;-73
2024/03/31 00:24:58;;;;;;;26.10;5.20;;;;;;;13.61;76.18;97754.05;109229;1253;59348;-73
2024/03/31 00:27:25;;;;;;;22.80;5.90;;;;;;;13.67;76.07;97750.70;109466;1253;59045;-74
2024/03/31 00:29:51;;;;;;;25.90;6.00;;;;;;;13.68;75.77;97745.72;109523;1253;59010;-73
2024/03/31 00:32:17;;;;;;;25.50;6.60;;;;;;;13.72;75.61;97742.00;109488;1253;59032;-73
2024/03/31 00:34:45;;;;;;;20.10;5.20;;;;;;;13.77;75.46;97741.05;109494;1253;59260;-73
2024/03/31 00:37:11;;;;;;;24.50;4.80;;;;;;;13.80;75.27;97736.48;109388;1252;64170;-73
2024/03/31 00:39:38;;;;;;;23.30;5.30;;;;;;;13.82;75.18;97732.91;109482;1253;58882;-74
2024/03/31 00:42:04;;;;;;;22.70;5.90;;;;;;;13.80;75.08;97731.46;109529;1252;59104;-74
2024/03/31 00:44:30;;;;;;;21.90;6.60;;;;;;;13.76;74.93;97729.79;109500;1253;59066;-73
2024/03/31 00:46:57;;;;;;;18.60;5.60;;;;;;;13.71;75.04;97732.19;109556;1252;59252;-74
2024/03/31 00:49:23;;;;;;;24.00;5.60;;;;;;;13.68;75.16;97726.84;109486;1253;59389;-73
2024/03/31 00:51:49;;;;;;;23.40;6.80;;;;;;;13.64;75.23;97729.88;109532;1252;59243;-73
2024/03/31 00:54:16;;;;;;;21.40;7.70;;;;;;;13.57;75.48;97728.11;109500;1253;59748;-72
2024/03/31 00:56:42;;;;;;;20.80;6.60;;;;;;;13.47;75.73;97723.92;109377;1253;59256;-73
2024/03/31 00:59:08;;;;;;;25.30;7.30;;;;;;;13.36;75.50;97725.16;109507;1252;59095;-73
2024/03/31 01:01:35;;;;;;;20.10;6.50;;;;;;;13.27;75.73;97722.63;109488;1253;59038;-74
2024/03/31 01:04:01;;;;;;;23.80;7.80;;;;;;;13.21;76.15;97717.02;109520;1252;59037;-73
2024/03/31 01:06:28;;;;;;;23.00;6.90;;;;;;;13.14;76.46;97718.69;109457;1253;59038;-73
2024/03/31 01:08:54;;;;;;;30.40;9.00;;;;;;;13.07;76.43;97719.80;109536;1253;59067;-73
2024/03/31 01:11:21;;;;;;;30.10;7.20;;;;;;;12.98;76.70;97711.40;109504;1253;59023;-73
2024/03/31 01:13:49;;;;;;;21.40;6.30;;;;;;;12.90;76.89;97710.86;109515;1252;59768;-74
2024/03/31 01:16:16;;;;;;;27.20;7.50;;;;;;;12.83;77.09;97706.00;109346;1253;58988;-73
2024/03/31 01:18:43;;;;;;;25.50;7.00;;;;;;;12.78;77.35;97702.64;109143;1252;58994;-73
2024/03/31 01:21:10;;;;;;;21.70;7.20;;;;;;;12.74;77.55;97698.58;109166;1252;66085;-73
2024/03/31 01:23:43;;;;;;;21.30;6.20;;;;;;;12.71;77.85;97697.95;109498;1253;68030;-75
2024/03/31 01:26:10;;;;;;;29.50;7.00;;;;;;;12.69;78.22;97689.96;109480;1253;65485;-74
2024/03/31 01:28:37;;;;;;;24.70;6.40;;;;;;;12.73;78.61;97683.30;109528;1252;59035;-72
2024/03/31 01:31:03;;;;;;;21.30;6.30;;;;;;;12.73;78.52;97683.16;109520;1252;59036;-72
2024/03/31 01:33:29;;;;;;;18.00;5.20;;;;;;;12.68;78.62;97681.10;109183;1252;59073;-74
2024/03/31 01:36:00;;;;;;;20.60;5.80;;;;;;;12.65;79.09;97679.65;109535;1252;59018;-73
2024/03/31 01:38:27;;;;;;;25.60;6.40;;;;;;;12.62;80.00;97684.05;109488;1252;62619;-73
2024/03/31 01:40:53;;;;;;;19.80;6.40;;;;;;;12.57;80.69;97679.55;109143;1253;59510;-73
2024/03/31 01:43:20;;;;;;;22.80;5.60;;;;;;;12.54;80.79;97676.95;109488;1253;58981;-73
2024/03/31 01:45:48;;;;;;;18.10;5.50;;;;;;;12.58;81.00;97677.99;109489;1253;66187;-74
2024/03/31 01:48:14;;;;;;;25.00;5.60;;;;;;;12.64;81.29;97679.45;109495;1253;59932;-74
2024/03/31 01:50:40;;;;;;;21.90;5.30;;;;;;;12.76;81.20;97682.36;109506;1253;59055;-72
2024/03/31 01:53:07;;;;;;;21.10;5.50;;;;;;;12.90;80.97;97679.33;109376;1254;59318;-72
2024/03/31 01:55:33;;;;;;;25.30;6.10;;;;;;;13.02;80.86;97672.48;109514;1253;59023;-73
2024/03/31 01:58:00;;;;;;;27.90;5.80;;;;;;;13.10;80.90;97673.83;109519;1253;64504;-73
2024/03/31 02:00:27;;;;;;;19.60;5.60;;;;;;;13.15;80.88;97670.83;109504;1253;58989;-76
2024/03/31 02:02:53;;;;;;;22.00;7.30;;;;;;;13.15;80.79;97669.76;109484;1253;64232;-74
2024/03/31 02:05:20;;;;;;;20.60;5.60;;;;;;;13.16;80.70;97670.41;109441;1253;58930;-73
2024/03/31 02:07:46;;;;;;;23.90;5.40;;;;;;;13.16;80.71;97674.09;109481;1253;59098;-73
2024/03/31 02:10:13;;;;;;;22.90;6.10;;;;;;;13.16;80.67;97671.48;109374;1257;59277;-74
2024/03/31 02:12:39;;;;;;;20.10;5.20;;;;;;;13.16;80.71;97664.52;109497;1253;58969;-73
2024/03/31 02:15:06;;;;;;;24.40;5.00;;;;;;;13.16;80.82;97668.61;109453;1253;59816;-73
2024/03/31 02:17:32;;;;;;;20.10;4.60;;;;;;;13.17;80.84;97668.28;109500;1253;59041;-73
2024/03/31 02:19:59;;;;;;;21.00;6.40;;;;;;;13.19;80.84;97668.30;109489;1253;58998;-74
2024/03/31 02:22:25;;;;;;;21.70;5.10;;;;;;;13.23;80.92;97666.70;109494;1253;59175;-73
2024/03/31 02:24:51;;;;;;;17.90;4.90;;;;;;;13.30;80.97;97660.45;109520;1253;58992;-74
2024/03/31 02:27:18;;;;;;;22.10;5.40;;;;;;;13.44;80.62;97665.15;109462;1253;59030;-73
2024/03/31 02:29:45;;;;;;;26.60;5.80;;;;;;;13.51;80.28;97661.01;109481;1253;59224;-73
2024/03/31 02:32:12;;;;;;;20.70;5.40;;;;;;;13.61;79.87;97663.63;109505;1253;59087;-73
2024/03/31 02:34:38;;;;;;;17.60;5.00;;;;;;;13.66;79.55;97664.20;109491;1253;59091;-74
2024/03/31 02:37:05;;;;;;;18.40;5.50;;;;;;;13.68;79.38;97660.48;109552;1253;59191;-74
2024/03/31 02:39:32;;;;;;;15.70;4.10;;;;;;;13.70;79.21;97657.25;109500;1253;59047;-74
2024/03/31 02:41:58;;;;;;;16.80;4.20;;;;;;;13.71;79.07;97660.10;109182;1252;59075;-73
2024/03/31 02:44:25;;;;;;;17.40;4.60;;;;;;;13.70;79.15;97667.70;109536;1252;59214;-74
2024/03/31 02:46:51;;;;;;;25.60;5.00;;;;;;;13.69;79.14;97667.31;109493;1253;58960;-73
2024/03/31 02:49:18;;;;;;;24.80;5.40;;;;;;;13.67;79.19;97666.83;109505;1253;59315;-74
2024/03/31 02:51:44;;;;;;;15.70;5.10;;;;;;;13.66;79.28;97665.79;109214;1253;59538;-73
2024/03/31 02:54:10;;;;;;;20.00;5.10;;;;;;;13.65;79.05;97665.34;109381;1252;59081;-72
2024/03/31 02:56:37;;;;;;;25.50;7.60;;;;;;;13.63;79.32;97667.69;109508;1253;59412;-74
2024/03/31 02:59:37;;;;;;;24.10;5.70;;;;;;;13.57;79.15;97669.02;109181;1252;59141;-73
2024/03/31 03:02:25;;;;;;;25.70;4.90;;;;;;;13.49;79.33;97667.31;108938;1256;59655;-74
2024/03/31 03:04:51;;;;;;;24.90;4.90;;;;;;;13.45;79.62;97665.06;109154;1256;58971;-73
2024/03/31 03:07:17;;;;;;;20.70;5.70;;;;;;;13.43;79.74;97664.61;109164;1256;59555;-74
2024/03/31 03:09:44;;;;;;;24.60;5.20;;;;;;;13.37;79.82;97658.31;109067;1256;59012;-75
2024/03/31 03:12:11;;;;;;;22.60;4.80;;;;;;;13.35;80.16;97652.77;109017;1256;59450;-74
2024/03/31 03:14:38;;;;;;;23.30;5.00;;;;;;;13.42;80.30;97650.85;109128;1256;60016;-73
2024/03/31 03:17:07;;;;;;;18.10;4.70;;;;;;;13.42;80.17;97657.52;109168;1256;59447;-73
2024/03/31 03:19:33;;;;;;;18.70;4.20;;;;;;;13.33;80.50;97651.27;109148;1256;59199;-72
2024/03/31 03:21:59;;;;;;;15.80;4.90;;;;;;;13.26;80.72;97651.42;109123;1256;59005;-74
2024/03/31 03:24:26;;;;;;;18.70;4.10;;;;;;;13.28;80.74;97654.96;109189;1256;59118;-74
2024/03/31 03:26:52;;;;;;;18.30;4.00;;;;;;;13.27;80.83;97663.65;109167;1256;59727;-73
2024/03/31 03:29:18;;;;;;;17.00;4.40;;;;;;;13.20;81.05;97661.98;109028;1256;59106;-74
2024/03/31 03:31:46;;;;;;;22.60;4.90;;;;;;;13.11;81.29;97670.14;109157;1256;59018;-74
2024/03/31 03:34:13;;;;;;;17.60;5.30;;;;;;;12.99;81.80;97668.45;109508;1252;59485;-72
2024/03/31 03:36:40;;;;;;;25.20;4.70;;;;;;;12.93;82.10;97666.78;109488;1253;65873;-74
2024/03/31 03:39:06;;;;;;;18.50;5.00;;;;;;;12.88;82.45;97671.17;109256;1253;58972;-74
2024/03/31 03:41:33;;;;;;;18.30;5.40;;;;;;;12.79;82.68;97663.48;109458;1253;59064;-73
2024/03/31 03:43:59;;;;;;;19.40;4.40;;;;;;;12.75;82.86;97670.12;109139;1253;59072;-73
2024/03/31 03:46:25;;;;;;;17.30;3.90;;;;;;;12.72;83.08;97666.84;109459;1253;59439;-74
2024/03/31 03:48:52;;;;;;;18.30;5.00;;;;;;;12.73;83.14;97664.73;109548;1252;59157;-74
2024/03/31 03:51:18;;;;;;;13.30;4.60;;;;;;;12.75;83.14;97664.10;109560;1253;59505;-73
2024/03/31 03:53:44;;;;;;;20.20;4.40;;;;;;;12.76;83.46;97664.35;109523;1253;58972;-73
2024/03/31 03:56:11;;;;;;;15.90;4.40;;;;;;;12.79;83.35;97667.42;109517;1253;58962;-73
2024/03/31 03:58:37;;;;;;;19.00;4.30;;;;;;;12.74;83.51;97666.27;109510;1252;59024;-75
2024/03/31 04:01:03;;;;;;;21.80;5.00;;;;;;;12.68;83.39;97662.05;109507;1253;58966;-73
2024/03/31 04:03:30;;;;;;;17.00;4.70;;;;;;;12.65;83.61;97656.06;109495;1253;59028;-73
2024/03/31 04:05:56;;;;;;;16.50;4.90;;;;;;;12.62;83.81;97656.06;109471;1253;59387;-73
2024/03/31 04:08:22;;;;;;;13.70;4.10;;;;;;;12.58;84.00;97659.63;109385;1252;59088;-74
2024/03/31 04:10:49;;;;;;;12.90;3.80;;;;;;;12.57;84.30;97663.32;109503;1253;59048;-74
2024/03/31 04:13:16;;;;;;;17.30;4.80;;;;;;;12.57;84.51;97659.75;109530;1253;59144;-74
2024/03/31 04:15:42;;;;;;;21.00;4.40;;;;;;;12.59;84.45;97658.87;109493;1253;59066;-73
2024/03/31 04:18:09;;;;;;;20.50;4.70;;;;;;;12.60;84.68;97658.61;109524;1253;59102;-73
2024/03/31 04:20:41;;;;;;;19.80;5.30;;;;;;;12.62;84.70;97659.64;109479;1252;58941;-73
2024/03/31 04:23:08;;;;;;;20.20;4.70;;;;;;;12.69;84.74;97658.56;109463;1252;59012;-73
2024/03/31 04:25:34;;;;;;;16.90;5.30;;;;;;;12.75;84.56;97656.05;109519;1253;59107;-74
2024/03/31 04:28:01;;;;;;;17.60;5.30;;;;;;;12.77;84.86;97658.55;109490;1252;59389;-74
2024/03/31 04:30:27;;;;;;;19.40;5.00;;;;;;;12.81;84.72;97661.38;109492;1253;58990;-73
2024/03/31 04:32:53;;;;;;;19.10;4.60;;;;;;;12.86;84.72;97661.17;109498;1253;59007;-73
2024/03/31 04:35:20;;;;;;;12.30;4.90;;;;;;;12.91;84.75;97661.91;109497;1253;59028;-74
2024/03/31 04:37:49;;;;;;;19.70;3.90;;;;;;;12.96;84.57;97662.73;109524;1253;59041;-73
2024/03/31 04:40:15;;;;;;;17.20;4.50;;;;;;;13.01;84.40;97662.82;109497;1252;60127;-73
2024/03/31 04:42:42;;;;;;;19.10;4.80;;;;;;;13.04;84.17;97665.66;109473;1253;59020;-74
2024/03/31 04:45:08;;;;;;;15.50;4.20;;;;;;;13.08;83.96;97670.79;109471;1253;58924;-73
2024/03/31 04:47:34;;;;;;;15.50;4.40;;;;;;;13.12;84.00;97670.63;109355;1253;59255;-73
2024/03/31 04:50:01;;;;;;;11.50;3.50;;;;;;;13.14;83.85;97666.81;109493;1252;59316;-74
2024/03/31 04:52:27;;;;;;;17.40;5.00;;;;;;;13.17;83.76;97670.26;109484;1252;59079;-74
2024/03/31 04:54:53;;;;;;;19.40;4.40;;;;;;;13.19;83.54;97669.70;109490;1252;59167;-73
2024/03/31 04:57:22;;;;;;;18.90;4.40;;;;;;;13.23;83.50;97672.74;109545;1253;59005;-73
2024/03/31 04:59:48;;;;;;;18.90;4.60;;;;;;;13.26;83.32;97669.09;109484;1253;58953;-72
2024/03/31 05:02:15;;;;;;;14.10;4.30;;;;;;;13.30;83.11;97670.59;109528;1253;59048;-74
2024/03/31 05:04:41;;;;;;;16.00;4.80;;;;;;;13.37;82.95;97671.91;109516;1252;59304;-73
2024/03/31 05:07:07;;;;;;;20.20;4.80;;;;;;;13.44;82.79;97670.52;109520;1253;58962;-75
2024/03/31 05:09:34;;;;;;;20.60;5.00;;;;;;;13.52;82.47;97671.09;109494;1252;59128;-74
2024/03/31 05:12:00;;;;;;;17.40;3.70;;;;;;;13.64;81.92;97671.16;109205;1253;59502;-74
2024/03/31 05:14:26;;;;;;;14.80;4.40;;;;;;;13.76;81.56;97666.73;109544;1253;59142;-73
2024/03/31 05:16:53;;;;;;;16.90;5.40;;;;;;;13.89;80.96;97665.83;109522;1253;59304;-73
2024/03/31 05:19:19;;;;;;;20.90;5.80;;;;;;;14.04;80.43;97669.61;109346;1252;59098;-73
2024/03/31 05:21:45;;;;;;;18.60;5.90;;;;;;;14.18;79.76;97665.35;109492;1253;59038;-74
2024/03/31 05:24:12;;;;;;;17.70;5.30;;;;;;;14.30;79.27;97672.80;109500;1252;59021;-73
2024/03/31 05:26:38;;;;;;;15.50;5.10;;;;;;;14.45;78.65;97675.22;109351;1253;149512;-74
2024/03/31 05:29:05;;;;;;;21.10;5.20;;;;;;;14.60;78.08;97662.77;109526;1253;59556;-73
2024/03/31 05:31:31;;;;;;;15.10;5.20;;;;;;;14.74;77.86;97666.27;109341;1254;59312;-73
2024/03/31 05:34:00;;;;;;;13.50;4.70;;;;;;;14.86;77.47;97667.38;109490;1253;59263;-72
2024/03/31 05:36:26;;;;;;;16.70;5.60;;;;;;;14.96;76.91;97664.00;109500;1253;59058;-73
2024/03/31 05:38:52;;;;;;;14.00;4.00;;;;;;;15.04;76.49;97667.75;109498;1252;64844;-74
2024/03/31 05:41:19;;;;;;;18.60;4.50;;;;;;;15.09;76.10;97665.98;109351;1253;59025;-73
2024/03/31 05:43:45;;;;;;;15.90;4.30;;;;;;;15.14;75.96;97661.50;109490;1252;59008;-73
2024/03/31 05:46:11;;;;;;;12.00;4.20;;;;;;;15.20;75.52;97663.90;109469;1253;59076;-73
2024/03/31 05:48:38;;;;;;;12.90;4.30;;;;;;;15.26;75.15;97658.98;109522;1252;59773;-72
2024/03/31 05:51:04;;;;;;;19.10;5.70;;;;;;;15.32;74.58;97660.49;109440;1256;58919;-74
2024/03/31 05:53:30;;;;;;;14.50;4.80;;;;;;;15.41;74.29;97652.75;109464;1253;59490;-74
2024/03/31 05:55:57;;;;;;;14.10;4.90;;;;;;;15.53;73.98;97652.25;109488;1253;59363;-73
2024/03/31 05:58:24;;;;;;;13.30;4.50;;;;;;;15.74;73.30;97649.16;109483;1253;58952;-73
2024/03/31 06:00:51;;;;;;;17.60;5.40;;;;;;;16.02;72.86;97650.02;109527;1253;59060;-74
2024/03/31 06:03:17;;;;;;;12.50;4.10;;;;;;;16.32;72.31;97647.88;109500;1254;59079;-73
2024/03/31 06:05:45;;;;;;;13.30;4.80;;;;;;;16.63;71.46;97645.71;109533;1253;59338;-73
2024/03/31 06:08:11;;;;;;;17.80;5.60;;;;;;;16.82;70.24;97647.30;109499;1253;62699;-73
2024/03/31 06:10:38;;;;;;;13.00;4.70;;;;;;;17.01;70.21;97643.66;109481;1253;58995;-73
2024/03/31 06:13:05;;;;;;;13.10;4.60;;;;;;;17.24;69.95;97638.55;109523;1253;59121;-73
2024/03/31 06:15:31;;;;;;;13.10;3.90;;;;;;;17.43;69.48;97638.66;109500;1253;65315;-72
2024/03/31 06:17:57;;;;;;;10.60;3.90;;;;;;;17.60;69.15;97639.51;109466;1252;59914;-72
2024/03/31 06:20:25;;;;;;;13.50;3.90;;;;;;;17.78;69.01;97641.93;109456;1253;59174;-72
2024/03/31 06:22:51;;;;;;;12.90;4.30;;;;;;;17.94;68.61;97639.27;109465;1253;58996;-74
2024/03/31 06:25:19;;;;;;;13.80;5.30;;;;;;;18.12;68.40;97638.02;109483;1252;59221;-73
2024/03/31 06:27:45;;;;;;;12.90;2.80;;;;;;;18.29;67.93;97641.03;109477;1252;64559;-72
2024/03/31 06:30:12;;;;;;;8.60;2.70;;;;;;;18.44;67.32;97637.58;109522;1252;59349;-72
2024/03/31 06:32:38;;;;;;;13.10;2.90;;;;;;;18.63;66.97;97627.79;109476;1253;63892;-73
2024/03/31 06:35:05;;;;;;;10.50;2.30;;;;;;;18.82;66.42;97623.08;109441;1252;59346;-74
2024/03/31 06:37:31;;;;;;;7.90;2.40;;;;;;;18.98;65.54;97615.93;109484;1252;59091;-73
2024/03/31 06:39:57;;;;;;;11.20;2.70;;;;;;;19.13;64.56;97612.06;109477;1253;59078;-72
2024/03/31 06:42:24;;;;;;;9.20;2.70;;;;;;;19.29;63.86;97610.45;109492;1253;59119;-73
2024/03/31 06:44:50;;;;;;;8.60;3.00;;;;;;;19.44;63.01;97610.52;109505;1253;59490;-72
2024/03/31 06:47:16;;;;;;;10.90;3.00;;;;;;;19.60;62.44;97605.64;109477;1252;59036;-74
2024/03/31 06:49:43;;;;;;;9.20;2.80;;;;;;;19.78;61.58;97598.08;109501;1252;59277;-73
2024/03/31 06:52:09;;;;;;;10.50;3.10;;;;;;;19.96;60.98;97595.19;109515;1253;59005;-73
2024/03/31 06:54:35;;;;;;;9.50;3.20;;;;;;;20.12;60.20;97590.02;109487;1253;59348;-74
2024/03/31 06:57:04;;;;;;;9.60;2.80;;;;;;;20.28;59.34;97590.54;109463;1253;59049;-73
2024/03/31 06:59:30;;;;;;;12.60;3.20;;;;;;;20.42;58.83;97593.61;109478;1253;59014;-74
2024/03/31 07:01:56;;;;;;;9.90;2.90;;;;;;;20.55;58.35;97592.42;109483;1253;58934;-72
2024/03/31 07:04:23;;;;;;;12.60;2.80;;;;;;;20.67;57.77;97584.23;109508;1252;58997;-73
2024/03/31 07:06:49;;;;;;;8.10;2.90;;;;;;;20.73;57.36;97583.73;109287;1253;59069;-72
2024/03/31 07:09:16;;;;;;;9.30;2.60;;;;;;;20.79;57.33;97581.50;109541;1253;59001;-73
2024/03/31 07:11:43;;;;;;;10.20;2.70;;;;;;;20.84;56.05;97579.61;109511;1253;59041;-73
2024/03/31 07:14:09;;;;;;;6.00;2.40;;;;;;;20.89;55.46;97585.86;109489;1256;59007;-74
2024/03/31 07:16:36;;;;;;;14.00;3.50;;;;;;;20.96;55.67;97597.02;109454;1253;59374;-75
2024/03/31 07:19:02;;;;;;;11.60;2.50;;;;;;;21.02;54.97;97597.95;109485;1252;58945;-73
2024/03/31 07:21:28;;;;;;;8.70;2.20;;;;;;;21.10;54.49;97598.02;109481;1253;59689;-73
2024/03/31 07:23:55;;;;;;;6.90;2.10;;;;;;;21.17;53.74;97597.95;109493;1253;59228;-73
2024/03/31 07:26:21;;;;;;;16.40;3.10;;;;;;;21.24;53.64;97593.92;109505;1253;59045;-74
2024/03/31 07:28:47;;;;;;;13.60;3.90;;;;;;;21.33;53.38;97594.28;109275;1253;59475;-73
2024/03/31 07:31:13;;;;;;;11.90;3.20;;;;;;;21.42;53.57;97593.62;109482;1254;59008;-75
2024/03/31 07:33:40;;;;;;;9.80;2.40;;;;;;;21.52;53.01;97594.92;109480;1253;59095;-72
2024/03/31 07:36:07;;;;;;;11.10;2.70;;;;;;;21.63;52.36;97593.52;109477;1253;58943;-75
2024/03/31 07:38:33;;;;;;;15.50;2.60;;;;;;;21.72;51.36;97593.02;109521;1253;59004;-74
2024/03/31 07:40:59;;;;;;;9.70;2.60;;;;;;;21.80;50.86;97593.70;109478;1253;59096;-74
2024/03/31 07:43:26;;;;;;;18.20;3.20;;;;;;;21.83;50.26;97602.37;109491;1253;59006;-75
2024/03/31 07:45:52;;;;;;;15.50;2.90;;;;;;;21.85;50.10;97600.83;109507;1253;59094;-74
2024/03/31 07:48:20;;;;;;;13.80;2.30;;;;;;;21.87;49.77;97600.69;109376;1253;59274;-73
2024/03/31 07:50:46;;;;;;;10.60;2.70;;;;;;;21.94;49.73;97597.11;109479;1254;59091;-75
2024/03/31 07:53:13;;;;;;;12.90;2.40;;;;;;;21.98;48.65;97596.56;109502;1253;64813;-73
2024/03/31 07:55:40;;;;;;;12.60;2.50;;;;;;;22.03;48.48;97591.17;109500;1252;58950;-73
2024/03/31 07:58:06;;;;;;;10.80;2.70;;;;;;;22.09;47.96;97585.58;109518;1253;64153;-74
2024/03/31 08:00:33;;;;;;;13.00;3.00;;;;;;;22.20;47.67;97586.25;109182;1253;59048;-73
2024/03/31 08:02:59;;;;;;;15.20;3.10;;;;;;;22.31;47.07;97583.43;109495;1253;58923;-73
2024/03/31 08:05:27;;;;;;;12.90;3.10;;;;;;;22.43;46.76;97580.27;109499;1253;64877;-73
2024/03/31 08:07:54;;;;;;;14.20;3.60;;;;;;;22.50;45.63;97580.80;109513;1254;58961;-73
2024/03/31 08:10:20;;;;;;;13.40;3.20;;;;;;;22.52;45.47;97582.88;109485;1254;65191;-73
2024/03/31 08:12:46;;;;;;;10.70;2.60;;;;;;;22.52;45.25;97589.40;109472;1256;59135;-73
2024/03/31 08:15:13;;;;;;;16.00;2.70;;;;;;;22.58;45.54;97593.35;109501;1253;59045;-73
2024/03/31 08:17:39;;;;;;;12.40;2.60;;;;;;;22.67;44.93;97590.84;109532;1256;59275;-74
2024/03/31 08:20:05;;;;;;;14.20;2.60;;;;;;;22.77;45.04;97591.23;109509;1253;59326;-73
2024/03/31 08:22:32;;;;;;;15.10;3.50;;;;;;;22.91;44.53;97582.62;109474;1254;59017;-72
2024/03/31 08:24:58;;;;;;;16.00;3.20;;;;;;;23.01;43.97;97580.66;109507;1255;59051;-73
2024/03/31 08:27:25;;;;;;;10.20;3.00;;;;;;;23.03;43.69;97579.98;109505;1253;59061;-72
2024/03/31 08:29:51;;;;;;;14.40;2.80;;;;;;;23.08;43.77;97574.02;109490;1254;59176;-75
2024/03/31 08:32:17;;;;;;;16.50;3.50;;;;;;;23.10;42.58;97569.71;109516;1254;59091;-73
2024/03/31 08:34:45;;;;;;;10.90;3.60;;;;;;;23.12;43.00;97560.42;109547;1253;58973;-72
2024/03/31 08:37:12;;;;;;;14.80;2.80;;;;;;;23.20;42.47;97563.91;109474;1254;58989;-74
2024/03/31 08:39:38;;;;;;;9.40;3.20;;;;;;;23.24;42.56;97567.20;109507;1253;59152;-74
2024/03/31 08:42:20;;;;;;;9.40;2.60;;;;;;;23.31;43.04;97575.31;109524;1253;59416;-73
2024/03/31 08:44:51;;;;;;;14.80;3.00;;;;;;;23.35;42.57;97565.83;109513;1253;59335;-72
2024/03/31 08:47:28;;;;;;;13.10;2.80;;;;;;;23.41;42.85;97563.88;109462;1253;63992;-74
2024/03/31 08:49:59;;;;;;;14.30;3.00;;;;;;;23.53;43.05;97553.88;109475;1253;58944;-73
2024/03/31 08:52:26;;;;;;;15.80;3.90;;;;;;;23.61;42.25;97547.08;109532;1254;59041;-73
2024/03/31 08:54:57;;;;;;;15.50;3.00;;;;;;;23.63;41.91;97541.86;109537;1253;66086;-74
2024/03/31 08:57:23;;;;;;;12.70;2.90;;;;;;;23.66;42.40;97542.38;109164;1254;59942;-72
2024/03/31 08:59:50;;;;;;;16.20;3.50;;;;;;;23.67;42.55;97541.40;109478;1254;59165;-73
2024/03/31 09:02:21;;;;;;;11.80;3.00;;;;;;;23.73;42.93;97539.17;109455;1253;58922;-73
2024/03/31 09:04:48;;;;;;;15.40;3.00;;;;;;;23.79;42.47;97540.35;109508;1253;59012;-73
2024/03/31 09:07:15;;;;;;;14.40;4.20;;;;;;;23.87;42.68;97537.34;109486;1253;65929;-72
2024/03/31 09:09:42;;;;;;;19.00;4.40;;;;;;;23.92;41.68;97536.95;109473;1253;59419;-74
2024/03/31 09:12:10;;;;;;;18.60;3.80;;;;;;;23.98;41.62;97536.05;109464;1254;63613;-75
2024/03/31 09:14:37;;;;;;;15.40;3.40;;;;;;;24.05;41.61;97542.31;109493;1253;58958;-74
2024/03/31 09:17:11;;;;;;;18.50;3.10;;;;;;;24.12;41.41;97546.05;109495;1257;58878;-72
2024/03/31 09:19:38;;;;;;;19.20;3.00;;;;;;;24.19;41.38;97547.58;109486;1253;66036;-74
2024/03/31 09:22:04;;;;;;;15.00;3.60;;;;;;;24.22;40.97;97543.05;109520;1253;60074;-74
2024/03/31 09:24:31;;;;;;;16.40;4.40;;;;;;;24.27;41.21;97540.48;109473;1253;63080;-74
2024/03/31 09:26:58;;;;;;;16.40;4.50;;;;;;;24.36;41.82;97543.16;109458;1254;58963;-73
2024/03/31 09:29:26;;;;;;;17.60;3.80;;;;;;;24.46;41.42;97537.20;109491;1254;59021;-74
2024/03/31 09:32:03;;;;;;;14.00;3.20;;;;;;;24.60;41.03;97534.88;109553;1254;64933;-73
2024/03/31 09:34:30;;;;;;;18.90;4.70;;;;;;;24.76;41.01;97549.17;109500;1253;60170;-72
2024/03/31 09:36:56;;;;;;;15.10;3.50;;;;;;;24.93;40.70;97557.52;109182;1254;59119;-73
2024/03/31 09:39:23;;;;;;;17.50;3.40;;;;;;;25.09;40.29;97556.26;109475;1254;59110;-73
2024/03/31 09:41:55;;;;;;;19.50;4.00;;;;;;;25.24;40.65;97562.18;109519;1253;58910;-85
2024/03/31 09:44:22;;;;;;;21.40;5.10;;;;;;;25.36;40.33;97564.83;109086;1254;65006;-75
2024/03/31 09:46:49;;;;;;;21.10;4.70;;;;;;;25.43;40.27;97571.44;109483;1254;60328;-73
2024/03/31 09:49:33;;;;;;;23.00;4.70;;;;;;;25.47;39.56;97563.99;109202;1254;62491;-76
2024/03/31 09:52:02;;;;;;;20.20;4.20;;;;;;;25.36;39.39;97564.66;109381;1254;59019;-75
2024/03/31 09:54:33;;;;;;;20.80;4.80;;;;;;;25.37;39.96;97569.34;109505;1254;58854;-76
2024/03/31 09:57:07;;;;;;;27.50;4.50;;;;;;;25.40;39.76;97571.64;109494;1253;65738;-75
2024/03/31 09:59:39;;;;;;;19.20;4.30;;;;;;;25.42;39.59;97565.54;109484;1253;60095;-74
2024/03/31 10:02:13;;;;;;;26.20;4.70;;;;;;;25.40;39.27;97558.17;109463;1253;63780;-76
2024/03/31 10:04:46;;;;;;;26.20;5.00;;;;;;;25.42;39.32;97553.28;109444;1254;58967;-75
2024/03/31 10:07:13;;;;;;;25.00;5.40;;;;;;;25.48;39.51;97555.36;109470;1254;58970;-76
2024/03/31 10:09:41;;;;;;;33.10;7.40;;;;;;;25.51;39.00;97556.92;109501;1254;64892;-76
2024/03/31 10:12:09;;;;;;;36.40;7.60;;;;;;;25.39;37.16;97562.52;109486;1253;60102;-75
2024/03/31 10:14:37;;;;;;;52.90;10.90;;;;;;;25.26;35.14;97550.38;109348;1254;62816;-75
2024/03/31 10:17:05;;;;;;;44.80;10.50;;;;;;;25.09;35.11;97553.19;109483;1253;59812;-74
2024/03/31 10:19:32;;;;;;;50.30;9.50;;;;;;;25.03;34.97;97555.55;109496;1253;59762;-74
2024/03/31 10:21:58;;;;;;;43.30;8.80;;;;;;;24.96;33.84;97552.05;109501;1253;66570;-74
2024/03/31 10:24:25;;;;;;;50.10;9.50;;;;;;;24.84;33.92;97549.04;109518;1254;60044;-74
2024/03/31 10:26:53;;;;;;;45.20;10.20;;;;;;;24.84;34.68;97547.77;109479;1253;63748;-75
2024/03/31 10:29:20;;;;;;;45.80;9.20;;;;;;;24.89;34.59;97540.66;109439;1253;60124;-73
2024/03/31 10:31:47;;;;;;;54.40;9.50;;;;;;;24.95;34.87;97540.73;109514;1254;59802;-73
2024/03/31 10:34:13;;;;;;;55.80;9.60;;;;;;;25.03;34.89;97540.95;109548;1254;60086;-75
2024/03/31 10:36:41;;;;;;;49.90;10.40;;;;;;;25.08;34.88;97538.23;109530;1253;59987;-74
2024/03/31 10:39:09;;;;;;;46.70;10.00;;;;;;;25.08;34.26;97535.63;109483;1253;62756;-75
2024/03/31 10:41:36;;;;;;;47.60;8.80;;;;;;;25.03;34.09;97538.88;109450;1254;59800;-73
2024/03/31 10:44:03;;;;;;;44.00;8.80;;;;;;;25.01;33.65;97538.45;109491;1254;59854;-72
2024/03/31 10:46:29;;;;;;;46.60;9.80;;;;;;;24.98;33.83;97545.27;109494;1254;66678;-73
2024/03/31 10:48:57;;;;;;;50.30;9.70;;;;;;;24.97;33.65;97546.35;109514;1253;59945;-75
2024/03/31 10:51:24;;;;;;;53.40;9.20;;;;;;;24.98;34.27;97544.52;109379;1253;64168;-75
2024/03/31 10:53:50;;;;;;;39.60;8.40;;;;;;;25.07;34.54;97542.30;109506;1254;59729;-72
2024/03/31 10:56:28;;;;;;;49.60;9.00;;;;;;;25.09;33.82;97541.11;109483;1253;59723;-73
2024/03/31 10:59:07;;;;;;;38.50;8.60;;;;;;;25.04;34.33;97541.42;109485;1254;67140;-73
2024/03/31 11:01:37;;;;;;;44.70;9.10;;;;;;;25.05;34.48;97538.42;109498;1252;60922;-72
2024/03/31 11:04:19;;;;;;;44.40;9.30;;;;;;;25.09;33.98;97536.73;109198;1253;64072;-72
2024/03/31 11:06:47;;;;;;;39.00;8.70;;;;;;;25.08;33.37;97530.67;109473;1253;60304;-73
2024/03/31 11:09:13;;;;;;;46.80;8.70;;;;;;;25.04;33.22;97526.80;109489;1252;59803;-75
2024/03/31 11:11:40;;;;;;;51.50;9.40;;;;;;;25.01;33.55;97529.56;109444;1253;65448;-72
2024/03/31 11:14:07;;;;;;;41.60;8.80;;;;;;;25.09;33.99;97523.65;109489;1253;61173;-73
2024/03/31 11:16:34;;;;;;;48.40;8.50;;;;;;;25.19;34.19;97521.83;109497;1254;63003;-74